Hamilton, IA (50116)

11:22 PM CDT on July 30, 2014 (GMT -0500)
Knoxville Municipal (KOXV) Elev 928 ft | 41.30 °N, 93.11 °W | Change Station

Current weather conditions updated 7 minutes ago

Clear
Clear
63 °F
Feels Like 63 °F
N
7
Wind Variable Wind from West

Tomorrow is forecast to be Warmer than today. Showers possible early tomorrow night.

Today
High -- | Low -- °F
--% Chance of Precip.
Yesterday
High -- | Low -- °F
Precip. -- in
6:05 AM 8:30 PM
Waxing Crescent, 15% visible
Pressure 30.08 in
Visibility -9999.0 miles
Clouds Clear
Dew Point 57 °F
Humidity 82%
Rainfall 0.00 in
Snow Depth Not available.
UV 0 out of 12
Pollen 7.10 out of 12
Air Quality Not available.
Flu Activity Not available.
METAR KOXV 310415Z AUTO 26006KT CLR 17/14 A3008 RMK AO2

More Conditions Fewer Conditions

Pressure 30.08 in
Visibility -9999.0 miles
Clouds Clear
Dew Point 57 °F
Humidity 82%
Rainfall 0.00 in
Snow Depth Not available.
UV 0 out of 12
Pollen 7.10 out of 12
Air Quality Not available.
Flu Activity Not available.
METAR KOXV 310415Z AUTO 26006KT CLR 17/14 A3008 RMK AO2

More Conditions Fewer Conditions

10-Day Weather Forecast

Almanac

Astronomy

Jul. 30, 2014 Rise Set
Actual Time 6:05 AM CDT 8:30 PM CDT
Civil Twilight 5:34 AM CDT 9:01 PM CDT
Nautical Twilight 4:55 AM CDT 9:40 PM CDT
Astronomical Twilight 4:12 AM CDT 10:22 PM CDT
Moon 9:40 AM CDT (7/30) 10:10 PM CDT (7/30)
Length of Visible Light 15h 27m
Length of Day
14h 25m
Tomorrow will be 2m 1s shorter.
Waxing Crescent, 15% of the Moon is Illuminated
Jul 31
Waxing Crescent
Aug 3
First Quarter
Aug 10
Full
Aug 17
Last Quarter
Aug 25
New

Today's Extremes

State Highs State Lows

Community

WunderPhotos

Upload Photos

1,739,238 photos uploaded!

Nearby

Snow Depth

Station Depth Elevation
No new snow has been reported.

Earthquake Activity

City Distance Mag. Time & Date
No recent earthquake activity has been reported nearby.
Minimum magnitude displayed is 2.5.

Coastal Water Temperatures

Place Temperature
No Stations Reporting

Nearby Weather Stations

Station Location Temp. Heat Index Dew Point Humidity Wind Precip. Elev Updated Type
MesoWest MELCHR , Dallas, IA 73 °F 71 °F - - North  at  - 0.00 in / hr 955 ft 8:40 PM CDT MADIS
Hunters Ridge, Pella, IA 66.0 °F - 60 °F 80% North  at  0.0 mph 0.00 in / hr 840 ft 11:19 PM CDT Normal
Oskaloosa, IA 69.2 °F - 59 °F 70% North  at  0.0 mph 0.00 in / hr 846 ft 11:22 PM CDT Rapid Fire
BankerWeather, Pella, IA 64.0 °F - 59 °F 84% WNW  at  0.0 mph - / hr 850 ft 11:14 PM CDT Normal
Otley, Otley, IA 62.4 °F - 60 °F 93% NNW  at  0.0 mph 0.00 in / hr 810 ft 11:22 PM CDT Rapid Fire
Rural Pleasantville, Pleasantville, IA 57.9 °F - 53 °F 83% ESE  at  0.0 mph - / hr 843 ft 11:14 PM CDT Normal
MesoWest CHARIT , Chariton, IA 69 °F - - - North  at  - 0.00 in / hr 1018 ft 10:10 PM CDT MADIS
farm, Chariton, IA 63.4 °F - 59 °F 84% WSW  at  0.0 mph 0.00 in / hr 971 ft 11:22 PM CDT Rapid Fire

Show More Stations Show Fewer Stations